sensor_id;sensor_type;location;lat;lon;timestamp;pressure;altitude;pressure_sealevel;temperature;humidity
46944;BME280;32678;43.852;25.952;2023-08-30T00:00:03;99965.19;;;29.30;40.80
46944;BME280;32678;43.852;25.952;2023-08-30T00:05:02;99958.91;;;29.59;39.82
46944;BME280;32678;43.852;25.952;2023-08-30T00:09:59;99955.63;;;29.85;39.48
46944;BME280;32678;43.852;25.952;2023-08-30T00:14:56;99963.34;;;30.09;40.19
46944;BME280;32678;43.852;25.952;2023-08-30T00:19:53;99943.66;;;30.15;39.97
46944;BME280;32678;43.852;25.952;2023-08-30T00:24:51;99931.66;;;30.31;38.55
46944;BME280;32678;43.852;25.952;2023-08-30T00:29:47;99939.69;;;29.90;38.88
46944;BME280;32678;43.852;25.952;2023-08-30T00:34:44;99930.28;;;29.86;40.00
46944;BME280;32678;43.852;25.952;2023-08-30T00:39:41;99927.50;;;29.79;39.52
46944;BME280;32678;43.852;25.952;2023-08-30T00:44:38;99941.53;;;29.68;40.33
46944;BME280;32678;43.852;25.952;2023-08-30T00:49:34;99940.78;;;30.23;39.78
46944;BME280;32678;43.852;25.952;2023-08-30T00:54:31;99948.06;;;30.23;40.04
46944;BME280;32678;43.852;25.952;2023-08-30T00:59:29;99940.34;;;30.20;40.10
46944;BME280;32678;43.852;25.952;2023-08-30T01:04:27;99943.34;;;30.59;39.16
46944;BME280;32678;43.852;25.952;2023-08-30T01:09:23;99952.78;;;30.42;40.31
46944;BME280;32678;43.852;25.952;2023-08-30T01:14:20;99952.41;;;29.96;41.25
46944;BME280;32678;43.852;25.952;2023-08-30T01:19:25;99951.63;;;29.81;42.79
46944;BME280;32678;43.852;25.952;2023-08-30T01:24:23;99959.56;;;29.10;45.22
46944;BME280;32678;43.852;25.952;2023-08-30T01:29:23;99968.72;;;28.80;45.79
46944;BME280;32678;43.852;25.952;2023-08-30T01:34:20;99969.91;;;28.63;45.09
46944;BME280;32678;43.852;25.952;2023-08-30T01:39:17;99956.78;;;28.74;44.79
46944;BME280;32678;43.852;25.952;2023-08-30T01:44:15;99957.63;;;28.75;44.44
46944;BME280;32678;43.852;25.952;2023-08-30T01:49:13;99962.16;;;28.60;47.77
46944;BME280;32678;43.852;25.952;2023-08-30T01:54:10;99953.88;;;28.61;47.73
46944;BME280;32678;43.852;25.952;2023-08-30T01:59:10;99944.38;;;28.36;47.40
46944;BME280;32678;43.852;25.952;2023-08-30T02:04:07;99956.00;;;27.99;46.48
46944;BME280;32678;43.852;25.952;2023-08-30T02:09:07;99952.34;;;27.92;46.62
46944;BME280;32678;43.852;25.952;2023-08-30T02:14:06;99944.22;;;27.54;47.66
46944;BME280;32678;43.852;25.952;2023-08-30T02:19:06;99950.22;;;27.65;47.18
46944;BME280;32678;43.852;25.952;2023-08-30T02:24:04;99951.47;;;27.77;47.01
46944;BME280;32678;43.852;25.952;2023-08-30T02:29:01;99937.88;;;27.93;46.29
46944;BME280;32678;43.852;25.952;2023-08-30T02:33:58;99936.72;;;27.87;45.61
46944;BME280;32678;43.852;25.952;2023-08-30T02:38:54;99945.06;;;27.55;46.31
46944;BME280;32678;43.852;25.952;2023-08-30T02:43:52;99940.38;;;27.72;46.28
46944;BME280;32678;43.852;25.952;2023-08-30T02:48:48;99945.09;;;27.47;47.26
46944;BME280;32678;43.852;25.952;2023-08-30T02:53:45;99959.63;;;27.69;46.87
46944;BME280;32678;43.852;25.952;2023-08-30T02:58:41;99965.13;;;27.75;47.50
46944;BME280;32678;43.852;25.952;2023-08-30T03:03:38;99969.41;;;27.62;48.41
46944;BME280;32678;43.852;25.952;2023-08-30T03:08:36;99971.31;;;26.91;50.38
46944;BME280;32678;43.852;25.952;2023-08-30T03:13:32;99975.84;;;26.74;51.29
46944;BME280;32678;43.852;25.952;2023-08-30T03:18:29;99975.09;;;26.17;53.53
46944;BME280;32678;43.852;25.952;2023-08-30T03:23:26;99980.69;;;26.24;53.88
46944;BME280;32678;43.852;25.952;2023-08-30T03:28:23;99980.34;;;26.27;54.10
46944;BME280;32678;43.852;25.952;2023-08-30T03:33:19;99991.56;;;26.06;55.40
46944;BME280;32678;43.852;25.952;2023-08-30T03:38:16;99984.19;;;26.08;55.12
46944;BME280;32678;43.852;25.952;2023-08-30T03:43:14;99990.59;;;26.23;54.52
46944;BME280;32678;43.852;25.952;2023-08-30T03:48:10;99985.69;;;25.95;55.86
46944;BME280;32678;43.852;25.952;2023-08-30T03:53:07;99989.19;;;25.71;56.85
46944;BME280;32678;43.852;25.952;2023-08-30T03:58:03;99992.53;;;25.57;57.79
46944;BME280;32678;43.852;25.952;2023-08-30T04:03:01;99986.72;;;25.27;58.45
46944;BME280;32678;43.852;25.952;2023-08-30T04:07:57;99988.59;;;25.43;58.49
46944;BME280;32678;43.852;25.952;2023-08-30T04:12:54;99989.88;;;25.65;58.46
46944;BME280;32678;43.852;25.952;2023-08-30T04:17:51;100004.66;;;25.85;57.96
46944;BME280;32678;43.852;25.952;2023-08-30T04:22:49;100002.22;;;25.50;58.61
46944;BME280;32678;43.852;25.952;2023-08-30T04:27:45;100007.25;;;25.44;58.38
46944;BME280;32678;43.852;25.952;2023-08-30T04:32:44;100014.28;;;25.45;58.67
46944;BME280;32678;43.852;25.952;2023-08-30T04:37:40;100014.44;;;25.36;58.55
46944;BME280;32678;43.852;25.952;2023-08-30T04:42:39;100009.56;;;25.39;57.93
46944;BME280;32678;43.852;25.952;2023-08-30T04:47:36;100024.97;;;25.37;58.31
46944;BME280;32678;43.852;25.952;2023-08-30T04:52:32;100032.84;;;25.73;56.66
46944;BME280;32678;43.852;25.952;2023-08-30T04:57:29;100032.50;;;25.76;56.46
46944;BME280;32678;43.852;25.952;2023-08-30T05:02:29;100048.13;;;25.88;55.84
46944;BME280;32678;43.852;25.952;2023-08-30T05:07:31;100063.75;;;26.01;55.65
46944;BME280;32678;43.852;25.952;2023-08-30T05:12:27;100088.63;;;26.03;56.26
46944;BME280;32678;43.852;25.952;2023-08-30T05:17:24;100085.09;;;26.11;57.59
46944;BME280;32678;43.852;25.952;2023-08-30T05:22:21;100083.91;;;26.05;57.61
46944;BME280;32678;43.852;25.952;2023-08-30T05:27:18;100087.63;;;26.12;56.65
46944;BME280;32678;43.852;25.952;2023-08-30T05:32:15;100093.31;;;26.01;57.26
46944;BME280;32678;43.852;25.952;2023-08-30T05:37:14;100099.81;;;25.91;57.45
46944;BME280;32678;43.852;25.952;2023-08-30T05:42:26;100100.50;;;26.01;56.40
46944;BME280;32678;43.852;25.952;2023-08-30T05:47:25;100097.19;;;26.07;55.47
46944;BME280;32678;43.852;25.952;2023-08-30T05:52:22;100110.94;;;26.12;55.94
46944;BME280;32678;43.852;25.952;2023-08-30T05:57:18;100093.78;;;25.97;56.24
46944;BME280;32678;43.852;25.952;2023-08-30T06:02:18;100115.28;;;26.05;55.90
46944;BME280;32678;43.852;25.952;2023-08-30T06:07:15;100117.16;;;26.12;54.08
46944;BME280;32678;43.852;25.952;2023-08-30T06:12:11;100122.53;;;26.12;54.40
46944;BME280;32678;43.852;25.952;2023-08-30T06:17:08;100126.78;;;26.31;54.11
46944;BME280;32678;43.852;25.952;2023-08-30T06:22:08;100125.63;;;26.42;53.53
46944;BME280;32678;43.852;25.952;2023-08-30T06:27:04;100127.16;;;26.52;53.59
46944;BME280;32678;43.852;25.952;2023-08-30T06:32:01;100126.28;;;26.76;52.55
46944;BME280;32678;43.852;25.952;2023-08-30T06:36:58;100132.47;;;27.25;51.34
46944;BME280;32678;43.852;25.952;2023-08-30T06:41:55;100130.56;;;27.50;50.35
46944;BME280;32678;43.852;25.952;2023-08-30T06:46:56;100130.59;;;27.17;51.23
46944;BME280;32678;43.852;25.952;2023-08-30T06:51:55;100133.13;;;27.19;51.32
46944;BME280;32678;43.852;25.952;2023-08-30T06:56:58;100131.97;;;27.22;51.26
46944;BME280;32678;43.852;25.952;2023-08-30T07:01:55;100126.91;;;27.27;51.47
46944;BME280;32678;43.852;25.952;2023-08-30T07:06:52;100133.75;;;27.45;51.11
46944;BME280;32678;43.852;25.952;2023-08-30T07:11:48;100138.16;;;27.22;51.50
46944;BME280;32678;43.852;25.952;2023-08-30T07:16:45;100132.81;;;27.14;52.22
46944;BME280;32678;43.852;25.952;2023-08-30T07:21:42;100129.56;;;27.35;51.71
46944;BME280;32678;43.852;25.952;2023-08-30T07:26:39;100132.88;;;27.61;50.81
46944;BME280;32678;43.852;25.952;2023-08-30T07:31:36;100134.88;;;27.59;51.48
46944;BME280;32678;43.852;25.952;2023-08-30T07:36:33;100115.28;;;27.73;50.55
46944;BME280;32678;43.852;25.952;2023-08-30T07:41:43;100110.22;;;28.09;49.49
46944;BME280;32678;43.852;25.952;2023-08-30T07:46:40;100108.56;;;28.31;48.69
46944;BME280;32678;43.852;25.952;2023-08-30T07:51:42;100111.13;;;28.47;48.10
46944;BME280;32678;43.852;25.952;2023-08-30T07:56:39;100113.78;;;28.70;47.44
46944;BME280;32678;43.852;25.952;2023-08-30T08:01:36;100108.00;;;28.58;47.21
46944;BME280;32678;43.852;25.952;2023-08-30T08:06:32;100117.03;;;28.88;47.08
46944;BME280;32678;43.852;25.952;2023-08-30T08:11:31;100109.69;;;28.97;47.04
46944;BME280;32678;43.852;25.952;2023-08-30T08:16:28;100110.72;;;28.96;47.43
46944;BME280;32678;43.852;25.952;2023-08-30T08:21:25;100112.47;;;29.18;46.96
46944;BME280;32678;43.852;25.952;2023-08-30T08:26:21;100102.53;;;29.18;46.70
46944;BME280;32678;43.852;25.952;2023-08-30T08:31:19;100116.28;;;29.09;46.92
46944;BME280;32678;43.852;25.952;2023-08-30T08:36:18;100114.69;;;28.85;48.23
46944;BME280;32678;43.852;25.952;2023-08-30T08:41:14;100112.66;;;28.64;47.62
46944;BME280;32678;43.852;25.952;2023-08-30T08:46:12;100113.84;;;28.84;47.86
46944;BME280;32678;43.852;25.952;2023-08-30T08:51:10;100114.44;;;29.09;47.24
46944;BME280;32678;43.852;25.952;2023-08-30T08:56:08;100110.34;;;29.28;45.70
46944;BME280;32678;43.852;25.952;2023-08-30T09:01:05;100101.91;;;29.46;44.73
46944;BME280;32678;43.852;25.952;2023-08-30T09:06:09;100097.28;;;29.76;44.68
46944;BME280;32678;43.852;25.952;2023-08-30T09:11:09;100084.81;;;29.75;44.08
46944;BME280;32678;43.852;25.952;2023-08-30T09:16:11;100077.16;;;29.78;43.88
46944;BME280;32678;43.852;25.952;2023-08-30T09:21:09;100073.16;;;30.10;43.46
46944;BME280;32678;43.852;25.952;2023-08-30T09:26:06;100073.91;;;30.25;42.81
46944;BME280;32678;43.852;25.952;2023-08-30T09:31:03;100064.44;;;30.36;42.95
46944;BME280;32678;43.852;25.952;2023-08-30T09:36:17;100065.06;;;30.10;42.93
46944;BME280;32678;43.852;25.952;2023-08-30T09:41:15;100055.69;;;30.34;43.24
46944;BME280;32678;43.852;25.952;2023-08-30T09:46:14;100051.34;;;30.61;43.20
46944;BME280;32678;43.852;25.952;2023-08-30T09:51:12;100047.94;;;30.73;42.46
46944;BME280;32678;43.852;25.952;2023-08-30T09:56:19;100049.19;;;30.77;42.63
46944;BME280;32678;43.852;25.952;2023-08-30T10:01:21;100045.31;;;30.86;42.63
46944;BME280;32678;43.852;25.952;2023-08-30T10:06:19;100040.75;;;31.28;40.84
46944;BME280;32678;43.852;25.952;2023-08-30T10:11:16;100034.94;;;30.96;40.74
46944;BME280;32678;43.852;25.952;2023-08-30T10:16:16;100036.69;;;31.04;40.55
46944;BME280;32678;43.852;25.952;2023-08-30T10:21:14;100030.06;;;31.13;41.15
46944;BME280;32678;43.852;25.952;2023-08-30T10:26:14;100021.63;;;31.42;40.01
46944;BME280;32678;43.852;25.952;2023-08-30T10:31:12;100021.41;;;31.37;39.59
46944;BME280;32678;43.852;25.952;2023-08-30T10:36:10;100022.84;;;31.27;42.81
46944;BME280;32678;43.852;25.952;2023-08-30T10:41:06;100026.63;;;31.32;43.80
46944;BME280;32678;43.852;25.952;2023-08-30T10:46:03;100014.53;;;31.35;41.37
46944;BME280;32678;43.852;25.952;2023-08-30T10:51:02;100012.28;;;31.45;40.39
46944;BME280;32678;43.852;25.952;2023-08-30T10:56:07;100007.97;;;31.57;43.07
46944;BME280;32678;43.852;25.952;2023-08-30T11:01:09;100006.09;;;31.58;40.65
46944;BME280;32678;43.852;25.952;2023-08-30T11:06:06;100000.53;;;31.79;39.30
46944;BME280;32678;43.852;25.952;2023-08-30T11:11:03;99990.53;;;31.93;40.20
46944;BME280;32678;43.852;25.952;2023-08-30T11:16:01;99985.56;;;32.22;38.23
46944;BME280;32678;43.852;25.952;2023-08-30T11:20:59;99979.53;;;32.34;37.70
46944;BME280;32678;43.852;25.952;2023-08-30T11:25:56;99969.50;;;32.34;37.19
46944;BME280;32678;43.852;25.952;2023-08-30T11:30:53;99958.19;;;32.50;38.43
46944;BME280;32678;43.852;25.952;2023-08-30T11:35:51;99946.09;;;32.66;36.72
46944;BME280;32678;43.852;25.952;2023-08-30T11:40:49;99945.88;;;32.74;36.44
46944;BME280;32678;43.852;25.952;2023-08-30T11:45:46;99933.72;;;32.83;35.07
46944;BME280;32678;43.852;25.952;2023-08-30T11:50:43;99937.88;;;32.86;34.75
46944;BME280;32678;43.852;25.952;2023-08-30T11:55:45;99928.44;;;32.95;35.97
46944;BME280;32678;43.852;25.952;2023-08-30T12:00:42;99924.69;;;32.96;34.50
46944;BME280;32678;43.852;25.952;2023-08-30T12:05:43;99912.97;;;33.02;34.72
46944;BME280;32678;43.852;25.952;2023-08-30T12:10:40;99910.81;;;33.10;34.42
46944;BME280;32678;43.852;25.952;2023-08-30T12:15:39;99908.72;;;33.19;34.54
46944;BME280;32678;43.852;25.952;2023-08-30T12:20:36;99907.16;;;33.36;34.13
46944;BME280;32678;43.852;25.952;2023-08-30T12:25:32;99902.25;;;33.51;33.76
46944;BME280;32678;43.852;25.952;2023-08-30T12:30:29;99897.06;;;33.43;34.22
46944;BME280;32678;43.852;25.952;2023-08-30T12:35:27;99896.16;;;33.25;34.17
46944;BME280;32678;43.852;25.952;2023-08-30T12:40:23;99892.28;;;33.39;33.89
46944;BME280;32678;43.852;25.952;2023-08-30T12:45:22;99887.66;;;33.46;33.97
46944;BME280;32678;43.852;25.952;2023-08-30T12:50:19;99888.38;;;33.60;33.47
46944;BME280;32678;43.852;25.952;2023-08-30T12:55:16;99875.38;;;33.68;33.30
46944;BME280;32678;43.852;25.952;2023-08-30T13:00:16;99860.47;;;33.77;32.90
46944;BME280;32678;43.852;25.952;2023-08-30T13:05:13;99854.97;;;33.84;32.92
46944;BME280;32678;43.852;25.952;2023-08-30T13:10:10;99851.00;;;33.86;32.54
46944;BME280;32678;43.852;25.952;2023-08-30T13:15:08;99843.78;;;33.92;32.82
46944;BME280;32678;43.852;25.952;2023-08-30T13:20:06;99849.16;;;33.80;33.62
46944;BME280;32678;43.852;25.952;2023-08-30T13:25:03;99837.31;;;33.93;33.32
46944;BME280;32678;43.852;25.952;2023-08-30T13:30:01;99833.63;;;34.06;32.92
46944;BME280;32678;43.852;25.952;2023-08-30T13:34:58;99836.69;;;34.16;32.22
46944;BME280;32678;43.852;25.952;2023-08-30T13:39:55;99837.47;;;34.16;31.56
46944;BME280;32678;43.852;25.952;2023-08-30T13:44:51;99836.69;;;34.16;30.96
46944;BME280;32678;43.852;25.952;2023-08-30T13:49:48;99854.25;;;34.20;31.60
46944;BME280;32678;43.852;25.952;2023-08-30T13:54:45;99852.66;;;34.30;31.61
46944;BME280;32678;43.852;25.952;2023-08-30T13:59:41;99856.34;;;34.36;31.84
46944;BME280;32678;43.852;25.952;2023-08-30T14:04:38;99860.53;;;34.39;31.86
46944;BME280;32678;43.852;25.952;2023-08-30T14:09:35;99860.88;;;34.42;30.91
46944;BME280;32678;43.852;25.952;2023-08-30T14:14:34;99855.00;;;34.45;31.17
46944;BME280;32678;43.852;25.952;2023-08-30T14:19:33;99855.44;;;34.42;31.33
46944;BME280;32678;43.852;25.952;2023-08-30T14:24:30;99861.41;;;34.32;31.67
46944;BME280;32678;43.852;25.952;2023-08-30T14:29:34;99854.84;;;33.47;31.06
46944;BME280;32678;43.852;25.952;2023-08-30T14:34:31;99857.72;;;33.21;31.53
46944;BME280;32678;43.852;25.952;2023-08-30T14:39:28;99869.97;;;33.37;31.90
46944;BME280;32678;43.852;25.952;2023-08-30T14:44:24;99873.38;;;33.26;32.00
46944;BME280;32678;43.852;25.952;2023-08-30T14:49:22;99879.69;;;33.13;32.08
46944;BME280;32678;43.852;25.952;2023-08-30T14:54:19;99878.06;;;32.99;32.49
46944;BME280;32678;43.852;25.952;2023-08-30T14:59:15;99879.91;;;33.12;31.88
46944;BME280;32678;43.852;25.952;2023-08-30T15:04:12;99884.81;;;33.34;31.55
46944;BME280;32678;43.852;25.952;2023-08-30T15:09:09;99868.78;;;33.26;30.94
46944;BME280;32678;43.852;25.952;2023-08-30T15:14:06;99873.56;;;33.24;31.60
46944;BME280;32678;43.852;25.952;2023-08-30T15:19:03;99872.81;;;33.04;31.79
46944;BME280;32678;43.852;25.952;2023-08-30T15:23:59;99868.47;;;33.03;32.04
46944;BME280;32678;43.852;25.952;2023-08-30T15:28:57;99869.06;;;33.05;32.28
46944;BME280;32678;43.852;25.952;2023-08-30T15:33:53;99900.69;;;32.93;32.03
46944;BME280;32678;43.852;25.952;2023-08-30T15:38:50;99902.56;;;32.92;32.32
46944;BME280;32678;43.852;25.952;2023-08-30T15:43:47;99905.50;;;32.91;34.49
46944;BME280;32678;43.852;25.952;2023-08-30T15:48:44;99890.88;;;32.85;35.93
46944;BME280;32678;43.852;25.952;2023-08-30T15:53:42;99877.75;;;32.82;34.60
46944;BME280;32678;43.852;25.952;2023-08-30T15:58:39;99885.63;;;32.97;36.25
46944;BME280;32678;43.852;25.952;2023-08-30T16:03:35;99870.94;;;33.04;35.18
46944;BME280;32678;43.852;25.952;2023-08-30T16:08:33;99870.28;;;33.09;35.75
46944;BME280;32678;43.852;25.952;2023-08-30T16:13:30;99881.88;;;32.98;36.01
46944;BME280;32678;43.852;25.952;2023-08-30T16:18:26;99902.38;;;32.87;36.32
46944;BME280;32678;43.852;25.952;2023-08-30T16:23:23;99921.31;;;33.00;35.95
46944;BME280;32678;43.852;25.952;2023-08-30T16:28:20;99944.47;;;33.09;36.75
46944;BME280;32678;43.852;25.952;2023-08-30T16:33:17;99984.72;;;32.09;43.73
46944;BME280;32678;43.852;25.952;2023-08-30T16:38:15;100003.13;;;29.22;55.56
46944;BME280;32678;43.852;25.952;2023-08-30T16:43:11;99996.38;;;28.59;57.99
46944;BME280;32678;43.852;25.952;2023-08-30T16:48:09;99997.44;;;29.32;59.95
46944;BME280;32678;43.852;25.952;2023-08-30T16:53:06;100013.63;;;29.67;60.35
46944;BME280;32678;43.852;25.952;2023-08-30T16:58:04;100028.28;;;29.58;57.81
46944;BME280;32678;43.852;25.952;2023-08-30T17:03:01;100041.38;;;28.81;58.25
46944;BME280;32678;43.852;25.952;2023-08-30T17:08:00;100055.22;;;28.41;61.73
46944;BME280;32678;43.852;25.952;2023-08-30T17:12:57;100052.75;;;28.69;60.00
46944;BME280;32678;43.852;25.952;2023-08-30T17:17:53;100051.72;;;28.55;61.31
46944;BME280;32678;43.852;25.952;2023-08-30T17:22:50;100039.25;;;28.17;60.55
46944;BME280;32678;43.852;25.952;2023-08-30T17:27:50;100056.56;;;27.99;60.51
46944;BME280;32678;43.852;25.952;2023-08-30T17:32:46;100074.06;;;27.73;61.97
46944;BME280;32678;43.852;25.952;2023-08-30T17:37:43;100097.03;;;27.05;66.52
46944;BME280;32678;43.852;25.952;2023-08-30T17:42:40;100094.50;;;27.04;67.24
46944;BME280;32678;43.852;25.952;2023-08-30T17:47:49;100093.13;;;27.16;66.94
46944;BME280;32678;43.852;25.952;2023-08-30T17:52:46;100102.00;;;27.25;67.72
46944;BME280;32678;43.852;25.952;2023-08-30T17:57:43;100124.41;;;27.09;68.18
46944;BME280;32678;43.852;25.952;2023-08-30T18:02:39;100132.31;;;26.78;69.48
46944;BME280;32678;43.852;25.952;2023-08-30T18:07:37;100129.31;;;26.41;72.04
46944;BME280;32678;43.852;25.952;2023-08-30T18:12:33;100132.50;;;26.44;71.92
46944;BME280;32678;43.852;25.952;2023-08-30T18:17:30;100135.22;;;26.52;72.45
46944;BME280;32678;43.852;25.952;2023-08-30T18:22:28;100144.63;;;26.48;72.83
46944;BME280;32678;43.852;25.952;2023-08-30T18:27:25;100145.59;;;26.31;73.22
46944;BME280;32678;43.852;25.952;2023-08-30T18:32:21;100147.72;;;26.03;75.11
46944;BME280;32678;43.852;25.952;2023-08-30T18:37:18;100173.31;;;26.23;75.12
46944;BME280;32678;43.852;25.952;2023-08-30T18:42:15;100180.47;;;26.15;75.78
46944;BME280;32678;43.852;25.952;2023-08-30T18:47:15;100221.72;;;26.40;74.51
46944;BME280;32678;43.852;25.952;2023-08-30T18:52:19;100237.50;;;25.93;75.85
46944;BME280;32678;43.852;25.952;2023-08-30T18:57:15;100213.47;;;25.91;75.94
46944;BME280;32678;43.852;25.952;2023-08-30T19:02:13;100201.72;;;25.84;76.58
46944;BME280;32678;43.852;25.952;2023-08-30T19:07:09;100232.16;;;25.67;77.75
46944;BME280;32678;43.852;25.952;2023-08-30T19:12:06;100242.97;;;25.75;77.66
46944;BME280;32678;43.852;25.952;2023-08-30T19:17:03;100230.16;;;26.03;75.82
46944;BME280;32678;43.852;25.952;2023-08-30T19:22:00;100228.09;;;25.88;75.96
46944;BME280;32678;43.852;25.952;2023-08-30T19:26:57;100253.97;;;25.64;77.34
46944;BME280;32678;43.852;25.952;2023-08-30T19:31:57;100277.91;;;25.83;76.62
46944;BME280;32678;43.852;25.952;2023-08-30T19:36:57;100292.78;;;26.45;74.42
46944;BME280;32678;43.852;25.952;2023-08-30T19:41:55;100295.19;;;26.56;74.11
46944;BME280;32678;43.852;25.952;2023-08-30T19:46:53;100286.97;;;26.74;73.03
46944;BME280;32678;43.852;25.952;2023-08-30T19:51:50;100299.50;;;26.99;71.52
46944;BME280;32678;43.852;25.952;2023-08-30T19:56:46;100310.41;;;27.22;70.98
46944;BME280;32678;43.852;25.952;2023-08-30T20:01:44;100294.09;;;27.48;69.10
46944;BME280;32678;43.852;25.952;2023-08-30T20:06:40;100274.44;;;27.55;69.46
46944;BME280;32678;43.852;25.952;2023-08-30T20:11:37;100252.56;;;27.26;70.89
46944;BME280;32678;43.852;25.952;2023-08-30T20:16:33;100268.69;;;26.86;72.48
46944;BME280;32678;43.852;25.952;2023-08-30T20:21:31;100301.69;;;27.04;72.15
46944;BME280;32678;43.852;25.952;2023-08-30T20:26:28;100309.41;;;27.39;70.33
46944;BME280;32678;43.852;25.952;2023-08-30T20:31:25;100317.66;;;27.13;70.76
46944;BME280;32678;43.852;25.952;2023-08-30T20:36:22;100312.09;;;27.23;70.67
46944;BME280;32678;43.852;25.952;2023-08-30T20:41:35;100318.84;;;27.27;70.65
46944;BME280;32678;43.852;25.952;2023-08-30T20:46:31;100332.13;;;27.37;69.82
46944;BME280;32678;43.852;25.952;2023-08-30T20:51:28;100342.59;;;27.64;68.71
46944;BME280;32678;43.852;25.952;2023-08-30T20:56:25;100345.94;;;27.58;68.41
46944;BME280;32678;43.852;25.952;2023-08-30T21:01:22;100344.22;;;27.81;67.33
46944;BME280;32678;43.852;25.952;2023-08-30T21:06:20;100338.50;;;27.76;67.45
46944;BME280;32678;43.852;25.952;2023-08-30T21:11:16;100348.63;;;27.90;66.98
46944;BME280;32678;43.852;25.952;2023-08-30T21:16:13;100352.16;;;27.42;68.65
46944;BME280;32678;43.852;25.952;2023-08-30T21:21:10;100341.22;;;27.44;68.97
46944;BME280;32678;43.852;25.952;2023-08-30T21:26:07;100346.09;;;27.16;70.05
46944;BME280;32678;43.852;25.952;2023-08-30T21:31:03;100333.97;;;26.88;70.97
46944;BME280;32678;43.852;25.952;2023-08-30T21:36:00;100332.38;;;26.77;72.04
46944;BME280;32678;43.852;25.952;2023-08-30T21:40:57;100319.31;;;26.40;73.97
46944;BME280;32678;43.852;25.952;2023-08-30T21:45:54;100309.69;;;26.71;72.82
46944;BME280;32678;43.852;25.952;2023-08-30T21:50:50;100315.28;;;26.94;72.47
46944;BME280;32678;43.852;25.952;2023-08-30T21:55:47;100298.50;;;27.25;71.69
46944;BME280;32678;43.852;25.952;2023-08-30T22:00:44;100305.72;;;27.56;71.15
46944;BME280;32678;43.852;25.952;2023-08-30T22:05:41;100311.06;;;27.89;69.26
46944;BME280;32678;43.852;25.952;2023-08-30T22:10:37;100311.69;;;27.99;67.48
46944;BME280;32678;43.852;25.952;2023-08-30T22:15:34;100328.03;;;28.14;67.26
46944;BME280;32678;43.852;25.952;2023-08-30T22:20:31;100321.59;;;28.07;66.99
46944;BME280;32678;43.852;25.952;2023-08-30T22:25:28;100323.97;;;28.10;66.91
46944;BME280;32678;43.852;25.952;2023-08-30T22:30:25;100354.78;;;28.23;66.66
46944;BME280;32678;43.852;25.952;2023-08-30T22:35:22;100378.03;;;28.16;66.76
46944;BME280;32678;43.852;25.952;2023-08-30T22:40:19;100371.97;;;28.06;67.15
46944;BME280;32678;43.852;25.952;2023-08-30T22:45:16;100390.31;;;28.11;67.07
46944;BME280;32678;43.852;25.952;2023-08-30T22:50:14;100379.88;;;28.16;66.57
46944;BME280;32678;43.852;25.952;2023-08-30T22:55:10;100355.94;;;28.21;65.06
46944;BME280;32678;43.852;25.952;2023-08-30T23:00:08;100371.47;;;28.19;64.92
46944;BME280;32678;43.852;25.952;2023-08-30T23:05:06;100379.56;;;28.02;65.76
46944;BME280;32678;43.852;25.952;2023-08-30T23:10:03;100384.47;;;27.83;66.02
46944;BME280;32678;43.852;25.952;2023-08-30T23:15:00;100387.00;;;27.84;66.24
46944;BME280;32678;43.852;25.952;2023-08-30T23:19:57;100386.16;;;27.92;65.79
46944;BME280;32678;43.852;25.952;2023-08-30T23:24:54;100371.50;;;27.86;65.76
46944;BME280;32678;43.852;25.952;2023-08-30T23:29:50;100370.47;;;28.04;65.17
46944;BME280;32678;43.852;25.952;2023-08-30T23:34:47;100365.41;;;28.17;64.90
46944;BME280;32678;43.852;25.952;2023-08-30T23:39:44;100371.31;;;28.04;64.66
46944;BME280;32678;43.852;25.952;2023-08-30T23:44:41;100376.88;;;28.19;64.94
46944;BME280;32678;43.852;25.952;2023-08-30T23:49:37;100369.78;;;28.18;65.17
46944;BME280;32678;43.852;25.952;2023-08-30T23:54:34;100368.56;;;28.28;64.37
46944;BME280;32678;43.852;25.952;2023-08-30T23:59:32;100355.31;;;28.50;63.74
